createdAt,value
2024-01-05T00:01:50.970Z,2.15
2024-01-05T00:04:55.250Z,2.25
2024-01-05T00:08:05.117Z,1.95
2024-01-05T00:11:08.581Z,2.15
2024-01-05T00:14:14.892Z,2.05
2024-01-05T00:17:21.595Z,1.92
2024-01-05T00:20:25.194Z,2.20
2024-01-05T00:23:29.446Z,2.47
2024-01-05T00:26:33.089Z,2.10
2024-01-05T00:29:36.565Z,2.35
2024-01-05T00:32:42.646Z,2.30
2024-01-05T00:35:46.551Z,2.00
2024-01-05T00:38:53.451Z,2.30
2024-01-05T00:41:57.383Z,2.40
2024-01-05T00:45:01.054Z,2.05
2024-01-05T00:48:06.700Z,2.55
2024-01-05T00:51:10.820Z,2.55
2024-01-05T00:54:14.456Z,1.80
2024-01-05T00:57:18.003Z,2.08
2024-01-05T01:00:21.706Z,2.38
2024-01-05T01:03:27.177Z,2.42
2024-01-05T01:06:31.118Z,2.58
2024-01-05T01:09:35.424Z,2.42
2024-01-05T01:12:39.095Z,2.47
2024-01-05T01:15:42.675Z,2.17
2024-01-05T01:18:48.090Z,2.40
2024-01-05T01:21:51.579Z,2.83
2024-01-05T01:24:55.346Z,2.42
2024-01-05T01:27:59.068Z,2.30
2024-01-05T01:31:02.958Z,3.40
2024-01-05T01:34:08.468Z,2.95
2024-01-05T01:37:12.275Z,2.28
2024-01-05T01:40:17.027Z,3.03
2024-01-05T01:43:22.402Z,2.80
2024-01-05T01:46:26.983Z,3.20
2024-01-05T01:49:33.100Z,3.20
2024-01-05T01:52:37.674Z,2.65
2024-01-05T01:55:41.551Z,3.50
2024-01-05T01:58:45.408Z,3.00
2024-01-05T02:01:49.040Z,3.13
2024-01-05T02:04:54.793Z,3.03
2024-01-05T02:07:58.984Z,2.70
2024-01-05T02:11:02.486Z,3.08
2024-01-05T02:14:06.308Z,3.17
2024-01-05T02:17:24.987Z,3.53
2024-01-05T02:20:30.236Z,3.08
2024-01-05T02:23:35.519Z,3.20
2024-01-05T02:26:39.200Z,2.85
2024-01-05T02:29:43.418Z,3.33
2024-01-05T02:32:47.084Z,2.90
2024-01-05T02:35:51.534Z,2.25
2024-01-05T02:38:56.643Z,2.88
2024-01-05T02:42:00.267Z,3.03
2024-01-05T02:45:04.031Z,3.70
2024-01-05T02:48:08.460Z,3.25
2024-01-05T02:51:15.006Z,3.00
2024-01-05T02:54:21.055Z,3.33
2024-01-05T02:57:24.672Z,2.38
2024-01-05T03:00:28.517Z,3.20
2024-01-05T03:03:32.397Z,2.28
2024-01-05T03:06:36.115Z,2.85
2024-01-05T03:09:41.440Z,3.20
2024-01-05T03:12:44.911Z,3.40
2024-01-05T03:15:50.424Z,2.42
2024-01-05T03:18:54.222Z,3.00
2024-01-05T03:21:58.036Z,3.10
2024-01-05T03:25:03.248Z,2.83
2024-01-05T03:28:06.783Z,3.13
2024-01-05T03:31:14.379Z,2.47
2024-01-05T03:34:18.484Z,2.40
2024-01-05T03:37:22.022Z,2.95
2024-01-05T03:40:26.856Z,2.20
2024-01-05T03:43:30.822Z,2.95
2024-01-05T03:46:34.450Z,2.75
2024-01-05T03:49:38.926Z,2.72
2024-01-05T03:52:42.662Z,2.47
2024-01-05T03:55:47.722Z,2.70
2024-01-05T03:58:51.401Z,2.45
2024-01-05T04:01:54.967Z,2.25
2024-01-05T04:04:58.558Z,2.60
2024-01-05T04:08:02.391Z,2.40
2024-01-05T04:11:07.799Z,2.20
2024-01-05T04:14:11.497Z,2.70
2024-01-05T04:17:15.200Z,2.67
2024-01-05T04:20:18.824Z,2.90
2024-01-05T04:23:22.440Z,3.17
2024-01-05T04:26:27.702Z,2.97
2024-01-05T04:29:31.861Z,2.40
2024-01-05T04:32:35.619Z,2.15
2024-01-05T04:35:39.917Z,2.53
2024-01-05T04:38:43.742Z,2.35
2024-01-05T04:41:48.679Z,2.67
2024-01-05T04:44:52.297Z,2.38
2024-01-05T04:47:56.570Z,2.65
2024-01-05T04:51:01.394Z,2.47
2024-01-05T04:54:05.089Z,2.08
2024-01-05T04:57:10.106Z,2.67
2024-01-05T05:00:13.933Z,2.47
2024-01-05T05:03:17.653Z,2.47
2024-01-05T05:06:21.367Z,2.28
2024-01-05T05:09:25.697Z,2.45
2024-01-05T05:12:30.728Z,2.22
2024-01-05T05:15:34.693Z,2.45
2024-01-05T05:18:38.867Z,2.30
2024-01-05T05:21:42.719Z,2.28
2024-01-05T05:24:46.800Z,2.80
2024-01-05T05:27:51.745Z,1.85
2024-01-05T05:30:55.721Z,2.63
2024-01-05T05:33:59.581Z,2.25
2024-01-05T05:37:03.136Z,2.17
2024-01-05T05:40:07.110Z,3.00
2024-01-05T05:43:12.494Z,2.55
2024-01-05T05:46:16.402Z,2.53
2024-01-05T05:49:20.317Z,2.67
2024-01-05T05:52:26.005Z,3.00
2024-01-05T05:55:30.738Z,1.92
2024-01-05T05:58:37.069Z,1.95
2024-01-05T06:01:41.056Z,2.35
2024-01-05T06:04:44.645Z,2.35
2024-01-05T06:07:48.190Z,2.33
2024-01-05T06:10:52.026Z,2.30
2024-01-05T06:13:58.146Z,2.13
2024-01-05T06:17:01.814Z,2.35
2024-01-05T06:20:06.150Z,2.13
2024-01-05T06:23:09.848Z,2.05
2024-01-05T06:26:13.615Z,2.80
2024-01-05T06:29:19.057Z,2.45
2024-01-05T06:32:22.778Z,3.35
2024-01-05T06:35:26.284Z,2.55
2024-01-05T06:38:31.439Z,2.15
2024-01-05T06:41:35.347Z,2.05
2024-01-05T06:44:40.587Z,2.58
2024-01-05T06:47:44.268Z,2.13
2024-01-05T06:50:48.040Z,2.10
2024-01-05T06:53:51.959Z,2.90
2024-01-05T06:56:55.596Z,2.50
2024-01-05T07:00:02.470Z,2.35
2024-01-05T07:03:07.197Z,2.55
2024-01-05T07:06:12.345Z,2.38
2024-01-05T07:09:17.129Z,2.92
2024-01-05T07:12:20.945Z,3.05
2024-01-05T07:15:26.159Z,2.28
2024-01-05T07:18:33.252Z,1.90
2024-01-05T07:21:42.189Z,2.63
2024-01-05T07:24:46.222Z,2.00
2024-01-05T07:27:50.544Z,2.47
2024-01-05T07:30:55.590Z,2.70
2024-01-05T07:33:59.489Z,2.17
2024-01-05T07:37:03.122Z,2.35
2024-01-05T07:40:08.103Z,2.38
2024-01-05T07:43:14.172Z,2.25
2024-01-05T07:46:20.609Z,2.50
2024-01-05T07:49:25.333Z,2.00
2024-01-05T07:52:28.960Z,1.65
2024-01-05T07:55:33.728Z,1.83
2024-01-05T07:58:37.477Z,2.20
2024-01-05T08:01:42.923Z,1.77
2024-01-05T08:04:46.722Z,2.20
2024-01-05T08:07:52.104Z,1.92
2024-01-05T08:10:56.559Z,2.30
2024-01-05T08:14:02.082Z,1.92
2024-01-05T08:17:09.095Z,1.80
2024-01-05T08:20:14.032Z,2.08
2024-01-05T08:23:19.756Z,2.25
2024-01-05T08:26:24.104Z,1.90
2024-01-05T08:29:27.605Z,2.15
2024-01-05T08:32:32.922Z,1.98
2024-01-05T08:35:36.933Z,2.25
2024-01-05T08:38:40.845Z,1.63
2024-01-05T08:41:45.261Z,1.60
2024-01-05T08:44:49.462Z,1.08
2024-01-05T08:47:54.968Z,2.00
2024-01-05T08:50:58.930Z,1.50
2024-01-05T08:54:04.672Z,2.05
2024-01-05T08:57:12.191Z,1.70
2024-01-05T09:00:16.445Z,1.73
2024-01-05T09:03:21.826Z,1.73
2024-01-05T09:06:25.444Z,1.50
2024-01-05T09:09:29.147Z,1.45
2024-01-05T09:12:32.928Z,1.90
2024-01-05T09:15:36.615Z,2.10
2024-01-05T09:18:41.928Z,1.85
2024-01-05T09:21:45.801Z,1.02
2024-01-05T09:24:49.371Z,1.50
2024-01-05T09:27:53.324Z,1.60
2024-01-05T09:30:57.385Z,1.58
2024-01-05T09:34:02.453Z,1.92
2024-01-05T09:37:06.302Z,0.98
2024-01-05T09:40:12.392Z,1.50
2024-01-05T09:43:18.843Z,1.08
2024-01-05T09:46:22.895Z,1.75
2024-01-05T09:49:28.950Z,1.35
2024-01-05T09:52:32.756Z,1.40
2024-01-05T09:55:37.514Z,1.50
2024-01-05T09:58:41.450Z,1.50
2024-01-05T10:01:45.628Z,1.38
2024-01-05T10:04:51.223Z,1.40
2024-01-05T10:07:54.944Z,1.52
2024-01-05T10:11:02.216Z,1.10
2024-01-05T10:14:07.827Z,1.30
2024-01-05T10:17:12.978Z,1.13
2024-01-05T10:20:34.027Z,1.65
2024-01-05T10:23:44.013Z,1.23
2024-01-05T10:26:47.566Z,1.30
2024-01-05T10:29:58.453Z,1.02
2024-01-05T10:33:06.927Z,1.55
2024-01-05T10:36:13.259Z,0.88
2024-01-05T10:39:23.753Z,1.05
2024-01-05T10:42:28.781Z,1.13
2024-01-05T10:45:33.675Z,1.08
2024-01-05T10:48:42.516Z,1.33
2024-01-05T10:51:47.740Z,1.42
2024-01-05T10:54:53.059Z,1.10
2024-01-05T10:57:56.604Z,0.30
2024-01-05T11:01:08.287Z,1.67
2024-01-05T11:04:13.555Z,1.40
2024-01-05T11:07:20.164Z,1.05
2024-01-05T11:10:36.839Z,1.38
2024-01-05T11:13:52.455Z,1.23
2024-01-05T11:17:08.265Z,1.10
2024-01-05T11:20:18.014Z,1.15
2024-01-05T11:23:27.608Z,1.33
2024-01-05T11:26:36.109Z,1.38
2024-01-05T11:29:50.359Z,1.20
2024-01-05T11:32:53.984Z,1.20
2024-01-05T11:35:59.974Z,1.25
2024-01-05T11:39:05.239Z,1.55
2024-01-05T11:42:09.407Z,1.52
2024-01-05T11:45:14.635Z,1.20
2024-01-05T11:48:36.912Z,1.30
2024-01-05T11:51:43.121Z,1.08
2024-01-05T11:55:11.679Z,1.10
2024-01-05T11:58:20.431Z,1.20
2024-01-05T12:01:24.442Z,1.30
2024-01-05T12:04:28.121Z,1.10
2024-01-05T12:07:33.064Z,1.10
2024-01-05T12:10:39.082Z,0.85
2024-01-05T12:13:42.786Z,1.25
2024-01-05T12:16:46.438Z,1.20
2024-01-05T12:19:50.503Z,1.23
2024-01-05T12:22:54.459Z,0.80
2024-01-05T12:26:04.497Z,0.73
2024-01-05T12:29:09.496Z,1.30
2024-01-05T12:32:13.105Z,1.67
2024-01-05T12:35:16.975Z,0.50
2024-01-05T12:38:27.178Z,1.90
2024-01-05T12:41:34.062Z,1.17
2024-01-05T12:44:38.159Z,1.10
2024-01-05T12:47:42.281Z,1.27
2024-01-05T12:50:47.813Z,0.93
2024-01-05T12:54:02.680Z,1.40
2024-01-05T12:57:09.182Z,1.17
2024-01-05T13:00:13.190Z,1.13
2024-01-05T13:03:18.135Z,1.17
2024-01-05T13:06:22.338Z,1.20
2024-01-05T13:09:26.246Z,1.33
2024-01-05T13:12:31.420Z,1.10
2024-01-05T13:15:35.656Z,0.90
2024-01-05T13:18:39.448Z,1.30
2024-01-05T13:21:43.085Z,0.90
2024-01-05T13:24:48.616Z,1.33
2024-01-05T13:27:53.869Z,1.10
2024-01-05T13:31:02.272Z,0.90
2024-01-05T13:34:26.725Z,1.55
2024-01-05T13:37:30.686Z,2.15
2024-01-05T13:40:37.456Z,1.42
2024-01-05T13:43:45.097Z,1.50
2024-01-05T13:46:48.733Z,1.50
2024-01-05T13:49:52.639Z,0.77
2024-01-05T13:52:56.616Z,0.85
2024-01-05T13:56:00.225Z,1.52
2024-01-05T13:59:05.685Z,1.65
2024-01-05T14:02:10.061Z,1.50
2024-01-05T14:05:15.794Z,1.50
2024-01-05T14:08:22.485Z,1.55
2024-01-05T14:11:28.762Z,1.83
2024-01-05T14:14:34.140Z,2.33
2024-01-05T14:17:38.195Z,1.80
2024-01-05T14:20:41.859Z,0.93
2024-01-05T14:23:45.852Z,1.17
2024-01-05T14:26:50.477Z,1.52
2024-01-05T14:29:55.512Z,1.73
2024-01-05T14:32:59.187Z,1.20
2024-01-05T14:36:08.650Z,1.50
2024-01-05T14:39:13.039Z,1.25
2024-01-05T14:42:17.236Z,0.82
2024-01-05T14:45:25.248Z,1.42
2024-01-05T14:48:29.540Z,1.65
2024-01-05T14:51:33.316Z,1.20
2024-01-05T14:54:36.735Z,1.23
2024-01-05T14:57:43.313Z,1.70
2024-01-05T15:00:48.812Z,1.25
2024-01-05T15:03:52.972Z,1.17
2024-01-05T15:06:58.446Z,1.65
2024-01-05T15:10:04.031Z,1.30
2024-01-05T15:13:08.040Z,1.27
2024-01-05T15:16:13.673Z,1.50
2024-01-05T15:19:17.586Z,1.42
2024-01-05T15:22:22.779Z,1.25
2024-01-05T15:25:26.351Z,1.10
2024-01-05T15:28:30.679Z,1.30
2024-01-05T15:31:36.387Z,1.27
2024-01-05T15:34:41.204Z,1.02
2024-01-05T15:37:45.722Z,1.58
2024-01-05T15:40:49.601Z,1.52
2024-01-05T15:43:59.190Z,1.13
2024-01-05T15:47:04.368Z,2.13
2024-01-05T15:50:10.696Z,1.83
2024-01-05T15:53:15.114Z,1.75
2024-01-05T15:56:19.399Z,7.03
2024-01-05T15:59:23.674Z,1.98
2024-01-05T16:02:29.407Z,1.67
2024-01-05T16:05:34.871Z,1.52
2024-01-05T16:08:38.967Z,1.73
2024-01-05T16:11:43.536Z,1.52
2024-01-05T16:14:56.484Z,2.13
2024-01-05T16:18:07.168Z,1.85
2024-01-05T16:21:10.786Z,1.58
2024-01-05T16:24:14.975Z,1.45
2024-01-05T16:27:18.490Z,1.48
2024-01-05T16:30:23.143Z,1.48
2024-01-05T16:33:31.115Z,1.10
2024-01-05T16:36:35.032Z,1.38
2024-01-05T16:39:39.428Z,1.65
2024-01-05T16:42:44.718Z,1.45
2024-01-05T16:45:48.937Z,1.52
2024-01-05T16:49:49.289Z,1.65
2024-01-05T16:52:59.824Z,1.23
2024-01-05T16:56:03.979Z,1.73
2024-01-05T16:59:11.227Z,1.77
2024-01-05T17:02:15.182Z,1.30
2024-01-05T17:05:18.936Z,1.52
2024-01-05T17:08:24.238Z,1.50
2024-01-05T17:11:37.060Z,1.58
2024-01-05T17:14:56.273Z,1.42
2024-01-05T17:18:02.039Z,1.60
2024-01-05T17:21:10.355Z,1.08
2024-01-05T17:24:23.505Z,1.40
2024-01-05T17:27:29.879Z,1.40
2024-01-05T17:30:34.262Z,1.52
2024-01-05T17:33:38.101Z,1.55
2024-01-05T17:36:47.242Z,1.35
2024-01-05T17:39:52.668Z,1.90
2024-01-05T17:43:00.986Z,1.77
2024-01-05T17:46:25.464Z,2.60
2024-01-05T17:49:29.416Z,1.60
2024-01-05T17:54:49.552Z,1.67
2024-01-05T17:57:52.448Z,2.10
2024-01-05T18:02:05.558Z,1.95
2024-01-05T18:05:18.213Z,1.88
2024-01-05T18:08:48.646Z,2.38
2024-01-05T18:11:59.392Z,2.38
2024-01-05T18:15:05.589Z,2.55
2024-01-05T18:18:11.698Z,3.30
2024-01-05T18:21:17.147Z,2.53
2024-01-05T18:24:21.350Z,1.77
2024-01-05T18:27:44.617Z,2.13
2024-01-05T18:30:57.276Z,1.83
2024-01-05T18:34:12.219Z,2.17
2024-01-05T18:37:43.903Z,1.92
2024-01-05T18:40:53.682Z,2.08
2024-01-05T18:44:04.688Z,1.80
2024-01-05T18:47:27.339Z,2.70
2024-01-05T18:51:45.565Z,2.33
2024-01-05T18:55:53.303Z,4.10
2024-01-05T18:59:12.736Z,2.85
2024-01-05T19:02:26.435Z,2.33
2024-01-05T19:05:31.270Z,2.20
2024-01-05T19:08:50.973Z,2.30
2024-01-05T19:12:00.678Z,2.13
2024-01-05T19:15:05.794Z,2.35
2024-01-05T19:18:11.386Z,2.45
2024-01-05T19:21:15.869Z,2.30
2024-01-05T19:24:29.447Z,2.35
2024-01-05T19:27:39.661Z,2.50
2024-01-05T19:31:35.997Z,2.60
2024-01-05T19:35:02.331Z,2.03
2024-01-05T19:38:06.099Z,1.90
2024-01-05T19:41:12.257Z,2.40
2024-01-05T19:44:20.378Z,2.20
2024-01-05T19:47:25.522Z,2.17
2024-01-05T19:50:51.284Z,2.47
2024-01-05T19:53:58.536Z,2.67
2024-01-05T19:57:05.544Z,2.78
2024-01-05T20:00:14.489Z,2.42
2024-01-05T20:03:19.184Z,2.25
2024-01-05T20:06:32.554Z,1.98
2024-01-05T20:09:40.666Z,2.67
2024-01-05T20:12:46.875Z,2.33
2024-01-05T20:15:51.480Z,2.20
2024-01-05T20:18:55.466Z,2.03
2024-01-05T20:22:03.045Z,2.40
2024-01-05T20:25:08.384Z,2.58
2024-01-05T20:28:15.875Z,1.98
2024-01-05T20:31:22.873Z,2.83
2024-01-05T20:34:37.924Z,2.88
2024-01-05T20:37:46.244Z,2.05
2024-01-05T20:41:08.173Z,2.65
2024-01-05T20:44:21.952Z,2.35
2024-01-05T20:47:28.014Z,2.42
2024-01-05T20:50:36.523Z,2.28
2024-01-05T20:53:41.606Z,2.78
2024-01-05T20:56:45.170Z,2.78
2024-01-05T20:59:50.111Z,2.20
2024-01-05T21:02:54.774Z,2.25
2024-01-05T21:05:58.968Z,2.75
2024-01-05T21:09:07.431Z,2.47
2024-01-05T21:12:12.154Z,3.00
2024-01-05T21:15:15.937Z,2.88
2024-01-05T21:18:20.655Z,2.30
2024-01-05T21:21:38.835Z,2.85
2024-01-05T21:24:46.660Z,2.97
2024-01-05T21:27:51.206Z,2.08
2024-01-05T21:30:55.336Z,3.45
2024-01-05T21:33:59.199Z,4.47
2024-01-05T21:37:02.711Z,3.88
2024-01-05T21:40:09.615Z,4.63
2024-01-05T21:43:14.667Z,3.15
2024-01-05T21:46:18.351Z,3.03
2024-01-05T21:49:22.232Z,2.22
2024-01-05T21:52:28.154Z,2.55
2024-01-05T21:55:35.781Z,2.78
2024-01-05T21:58:39.624Z,2.28
2024-01-05T22:01:43.291Z,2.97
2024-01-05T22:04:47.797Z,1.65
2024-01-05T22:07:52.894Z,2.85
2024-01-05T22:10:58.669Z,2.53
2024-01-05T22:14:02.150Z,1.98
2024-01-05T22:17:09.481Z,1.85
2024-01-05T22:20:15.990Z,2.15
2024-01-05T22:23:19.639Z,2.63
2024-01-05T22:26:34.378Z,2.40
2024-01-05T22:29:37.943Z,1.73
2024-01-05T22:32:45.189Z,2.15
2024-01-05T22:35:50.241Z,2.53
2024-01-05T22:38:55.043Z,2.63
2024-01-05T22:42:00.088Z,2.15
2024-01-05T22:45:04.574Z,2.45
2024-01-05T22:48:09.686Z,2.00
2024-01-05T22:51:21.387Z,2.58
2024-01-05T22:54:25.619Z,2.55
2024-01-05T22:57:30.825Z,2.42
2024-01-05T23:00:36.554Z,2.85
2024-01-05T23:03:40.408Z,2.60
2024-01-05T23:06:44.297Z,2.58
2024-01-05T23:09:48.605Z,2.28
2024-01-05T23:12:54.053Z,2.70
2024-01-05T23:15:58.898Z,2.40
2024-01-05T23:19:02.677Z,2.83
2024-01-05T23:22:08.243Z,3.53
2024-01-05T23:25:13.099Z,3.95
2024-01-05T23:28:19.046Z,2.80
2024-01-05T23:31:22.577Z,3.30
2024-01-05T23:34:32.997Z,2.72
2024-01-05T23:37:36.945Z,3.10
2024-01-05T23:40:41.113Z,2.30
2024-01-05T23:43:52.144Z,2.53
2024-01-05T23:46:58.432Z,2.45
2024-01-05T23:50:02.587Z,2.58
2024-01-05T23:53:09.199Z,2.15
2024-01-05T23:56:13.188Z,2.90
2024-01-05T23:59:19.711Z,2.95
